Bookmark and Share
Track history (hours):
 

Dream Angel

Last reported at 2014-Apr-17 18:25 UTC. Time now 2014-Apr-24 14:04 UTC.
Position N 01°15' E 103°59'.

Length 187 m; draft 6.8 m.

Type: Ship. MMSI: 371820000.

NotesDate/timePositionNaut miles runAvg speedWind from/ knotsBaromVisibWave heightAir tempDewpointWater temp
2014-Apr-17 18:25N 01°15' E 103°59'910.0
2014-Apr-17 17:33N 01°11' E 103°51'10 9.9
2014-Apr-17 16:33N 01°05' E 103°43'7 6.4
2014-Apr-17 15:32N 01°04' E 103°37'8 8.4
2014-Apr-17 14:33N 01°08' E 103°29'12 0.3
2014-Apr-15 16:27N 01°17' E 103°21'1315.0
2014-Apr-15 15:33N 01°12' E 103°34'9 9.5
2014-Apr-15 14:33N 01°15' E 103°43'3 1.6
2014-Apr-15 12:32N 01°17' E 103°45'0 0.0
2014-Apr-15 11:32N 01°17' E 103°45'0 0.0
2014-Apr-15 10:32N 01°17' E 103°45'0 0.0
2014-Apr-15 09:32N 01°17' E 103°45'0 0.0
2014-Apr-15 08:32N 01°17' E 103°45'0 0.0
2014-Apr-15 06:32N 01°17' E 103°45'0 0.0
2014-Apr-15 05:32N 01°17' E 103°45'0 0.0
2014-Apr-15 02:32N 01°17' E 103°45'3 3.4
2014-Apr-15 01:34N 01°14' E 103°47'7 7.3
2014-Apr-15 00:33N 01°14' E 103°54'2 2.4
2014-Apr-14 23:32N 01°14' E 103°57'  
2014-Apr-11 05:33N 01°11' E 103°53'1414.2
2014-Apr-11 04:34N 01°04' E 103°41'9 8.8
2014-Apr-11 03:34N 01°07' E 103°33'11 0.3
2014-Apr-09 11:23N 01°15' E 103°25'1214.2
2014-Apr-09 10:33N 01°12' E 103°37'9 8.6
2014-Apr-09 09:33N 01°16' E 103°44'2 1.6
2014-Apr-09 08:28N 01°17' E 103°45'0 0.0
2014-Apr-09 07:31N 01°17' E 103°45'0 0.0
2014-Apr-09 06:31N 01°17' E 103°45'0 0.0
2014-Apr-09 05:28N 01°17' E 103°45'0 0.0
2014-Apr-09 04:31N 01°17' E 103°45'0 0.0
2014-Apr-09 03:31N 01°17' E 103°45'0 0.0
2014-Apr-09 02:31N 01°17' E 103°45'0 0.0
2014-Apr-09 01:28N 01°17' E 103°45'0 0.2
2014-Apr-09 00:33N 01°17' E 103°45'5 4.8
2014-Apr-08 23:33N 01°13' E 103°48'7 7.1
2014-Apr-08 22:33N 01°14' E 103°55'3 3.3
2014-Apr-08 21:32N 01°15' E 103°58'6 6.1
2014-Apr-08 20:31N 01°16' E 104°04'  

Dump ship's entire track history

sailing weather and tide predictions

Dream Angel — 3EEV — position and weather